Time;durP1;ratioP1;P1;durP2;ratioP2;P2;SDS_P1;SDS_P2;PMS_P1;PMS_P2;Temp;Humidity;BMP_temperature;BMP_pressure;BME280_temperature;BME280_humidity;BME280_pressure;Samples;Min_cycle;Max_cycle;Signal;HPM_P1;HPM_P2
2022/11/09 00:01:50;;;;;;;12.60;3.80;;;11.30;99.90;;;;;;4897775;29;20045;-64
2022/11/09 00:04:17;;;;;;;23.13;5.22;;;11.30;99.90;;;;;;4897912;29;20052;-63
2022/11/09 00:06:44;;;;;;;19.25;5.25;;;11.30;99.90;;;;;;4851266;29;20108;-64
2022/11/09 00:09:11;;;;;;;28.08;6.07;;;11.30;99.90;;;;;;4865919;29;20123;-64
2022/11/09 00:11:38;;;;;;;18.75;4.68;;;11.30;99.90;;;;;;4897784;29;20089;-64
2022/11/09 00:14:05;;;;;;;23.58;5.45;;;11.30;99.90;;;;;;4880960;29;20104;-64
2022/11/09 00:16:32;;;;;;;16.58;5.05;;;11.30;99.90;;;;;;4898178;29;20124;-64
2022/11/09 00:18:58;;;;;;;14.10;4.18;;;11.30;99.90;;;;;;4880929;29;20083;-63
2022/11/09 00:21:25;;;;;;;20.25;5.00;;;11.40;99.90;;;;;;4898264;29;20410;-63
2022/11/09 00:23:52;;;;;;;17.70;4.65;;;11.40;99.90;;;;;;4897606;29;20511;-64
2022/11/09 00:26:19;;;;;;;24.67;5.35;;;11.40;99.90;;;;;;4881468;29;20052;-64
2022/11/09 00:28:46;;;;;;;19.25;4.93;;;11.40;99.90;;;;;;4881064;29;20041;-63
2022/11/09 00:31:18;;;;;;;19.75;5.18;;;11.40;99.90;;;;;;4865777;29;20540;-64
2022/11/09 00:33:48;;;;;;;19.52;4.55;;;11.40;99.90;;;;;;4881824;29;20080;-64
2022/11/09 00:36:15;;;;;;;21.92;5.72;;;11.40;99.90;;;;;;4897997;29;20050;-64
2022/11/09 00:38:45;;;;;;;17.58;5.97;;;11.40;99.90;;;;;;4881441;29;20112;-64
2022/11/09 00:41:12;;;;;;;22.45;5.18;;;11.30;99.90;;;;;;4880647;29;20147;-64
2022/11/09 00:43:38;;;;;;;23.48;4.10;;;11.30;99.90;;;;;;4898024;29;20048;-64
2022/11/09 00:46:06;;;;;;;19.52;4.60;;;11.30;99.90;;;;;;4897646;29;20095;-64
2022/11/09 00:48:33;;;;;;;23.65;5.57;;;11.30;99.90;;;;;;4880714;29;20057;-64
2022/11/09 00:51:00;;;;;;;21.80;4.97;;;11.30;99.90;;;;;;4881246;29;20059;-64
2022/11/09 00:53:27;;;;;;;21.15;5.75;;;11.30;99.90;;;;;;4881723;29;20049;-64
2022/11/09 00:56:05;;;;;;;21.23;4.70;;;11.30;99.90;;;;;;4901606;29;20056;-64
2022/11/09 00:58:33;;;;;;;20.52;5.65;;;11.20;99.90;;;;;;4868980;29;20081;-64
2022/11/09 01:01:05;;;;;;;18.13;3.97;;;11.20;99.90;;;;;;4884166;29;20053;-64
2022/11/09 01:03:32;;;;;;;16.23;4.50;;;11.30;99.90;;;;;;4868700;29;20128;-64
2022/11/09 01:05:59;;;;;;;21.80;5.05;;;11.30;99.90;;;;;;4901095;29;20049;-64
2022/11/09 01:08:26;;;;;;;18.75;4.90;;;11.20;99.90;;;;;;4854183;29;20100;-64
2022/11/09 01:10:53;;;;;;;22.30;4.82;;;11.30;99.90;;;;;;4869412;29;20104;-64
2022/11/09 01:13:20;;;;;;;13.45;3.45;;;11.30;99.90;;;;;;4883640;29;20045;-64
2022/11/09 01:15:49;;;;;;;24.33;4.65;;;11.30;99.90;;;;;;4883585;29;20048;-64
2022/11/09 01:18:17;;;;;;;20.52;5.13;;;11.30;99.90;;;;;;4900314;29;20052;-64
2022/11/09 01:20:45;;;;;;;21.45;4.90;;;11.30;99.90;;;;;;4883807;29;20191;-63
2022/11/09 01:23:13;;;;;;;22.10;3.60;;;11.30;99.90;;;;;;4900382;29;20052;-64
2022/11/09 01:25:40;;;;;;;19.77;4.75;;;11.30;99.90;;;;;;4899236;29;20052;-64
2022/11/09 01:28:07;;;;;;;12.82;3.50;;;11.30;99.90;;;;;;4900030;29;20052;-64
2022/11/09 01:30:35;;;;;;;21.60;5.00;;;11.30;99.90;;;;;;4900567;29;20059;-64
2022/11/09 01:33:06;;;;;;;12.55;2.90;;;11.20;99.90;;;;;;4883306;29;20048;-64
2022/11/09 01:35:33;;;;;;;20.33;4.53;;;11.20;99.90;;;;;;4868114;29;20080;-64
2022/11/09 01:38:01;;;;;;;22.73;4.63;;;11.20;99.90;;;;;;4899063;29;20052;-64
2022/11/09 01:40:29;;;;;;;21.80;4.78;;;11.20;99.90;;;;;;4899941;29;20048;-64
2022/11/09 01:42:56;;;;;;;12.80;2.80;;;11.20;99.90;;;;;;4867803;29;20052;-64
2022/11/09 01:45:26;;;;;;;18.75;4.25;;;11.20;99.90;;;;;;4900458;29;20045;-64
2022/11/09 01:48:05;;;;;;;20.73;4.95;;;11.20;99.90;;;;;;4883159;29;20449;-64
2022/11/09 01:50:55;;;;;;;16.02;4.25;;;11.20;99.90;;;;;;4900395;29;20046;-64
2022/11/09 01:53:26;;;;;;;16.13;3.70;;;11.20;99.90;;;;;;4868225;29;20080;-64
2022/11/09 01:55:55;;;;;;;27.63;5.43;;;11.20;99.90;;;;;;4883446;29;20108;-64
2022/11/09 01:58:35;;;;;;;18.50;4.72;;;11.30;99.90;;;;;;4867611;29;20567;-64
2022/11/09 02:01:09;;;;;;;14.13;3.65;;;11.30;99.90;;;;;;4884354;29;20041;-64
2022/11/09 02:03:42;;;;;;;17.70;5.07;;;11.40;99.90;;;;;;4883662;29;20500;-64
2022/11/09 02:06:10;;;;;;;22.05;4.40;;;11.30;99.90;;;;;;4899263;29;20048;-64
2022/11/09 02:08:37;;;;;;;25.42;5.43;;;11.30;99.90;;;;;;4867456;29;20090;-64
2022/11/09 02:11:09;;;;;;;15.90;4.63;;;11.20;99.90;;;;;;4883633;29;20077;-64
2022/11/09 02:13:47;;;;;;;22.33;3.63;;;11.20;99.90;;;;;;4867329;29;20398;-64
2022/11/09 02:16:14;;;;;;;15.73;5.63;;;11.20;99.90;;;;;;4868920;29;20194;-64
2022/11/09 02:18:48;;;;;;;14.68;4.22;;;11.20;99.90;;;;;;4882628;29;20516;-64
2022/11/09 02:21:14;;;;;;;14.45;4.00;;;11.10;99.90;;;;;;4867700;29;20108;-64
2022/11/09 02:23:41;;;;;;;20.95;4.20;;;11.10;99.90;;;;;;4867160;29;20079;-64
2022/11/09 02:26:10;;;;;;;18.77;4.07;;;11.10;99.90;;;;;;4883268;29;20052;-64
2022/11/09 02:28:37;;;;;;;14.57;3.92;;;11.10;99.90;;;;;;4867374;29;20040;-64
2022/11/09 02:31:04;;;;;;;17.77;3.90;;;11.00;99.90;;;;;;4882522;29;20049;-64
2022/11/09 02:33:50;;;;;;;19.42;4.18;;;11.00;99.90;;;;;;4867880;29;20083;-64
2022/11/09 02:36:16;;;;;;;16.35;3.20;;;11.10;99.90;;;;;;4883474;29;20052;-64
2022/11/09 02:38:43;;;;;;;17.30;4.18;;;11.00;99.90;;;;;;4899641;29;20100;-64
2022/11/09 02:41:10;;;;;;;18.63;3.10;;;11.10;99.90;;;;;;4883061;29;20044;-64
2022/11/09 02:43:37;;;;;;;12.68;3.30;;;11.10;99.90;;;;;;4882888;29;20045;-64
2022/11/09 02:46:04;;;;;;;15.73;3.80;;;11.20;99.90;;;;;;4882515;29;20104;-64
2022/11/09 02:48:31;;;;;;;14.30;4.13;;;11.20;99.90;;;;;;4898488;29;20060;-64
2022/11/09 02:50:58;;;;;;;19.33;4.88;;;11.20;99.90;;;;;;4898800;29;20048;-64
2022/11/09 02:53:25;;;;;;;16.65;4.25;;;11.30;99.90;;;;;;4899662;29;20096;-64
2022/11/09 02:55:52;;;;;;;18.58;4.13;;;11.30;99.90;;;;;;4899641;29;20116;-64
2022/11/09 02:58:19;;;;;;;12.05;3.20;;;11.30;99.90;;;;;;4899832;29;20195;-64
2022/11/09 03:00:45;;;;;;;16.35;3.72;;;11.30;99.90;;;;;;4883117;29;20049;-64
2022/11/09 03:03:12;;;;;;;19.23;4.40;;;11.30;99.90;;;;;;4898852;29;20135;-64
2022/11/09 03:05:39;;;;;;;15.65;3.55;;;11.30;99.90;;;;;;4881894;29;20048;-64
2022/11/09 03:08:06;;;;;;;20.10;3.50;;;11.40;99.90;;;;;;4898980;29;20100;-64
2022/11/09 03:10:33;;;;;;;13.45;4.65;;;11.40;99.90;;;;;;4898248;29;20052;-64
2022/11/09 03:13:00;;;;;;;16.45;3.72;;;11.40;99.90;;;;;;4898415;29;20167;-64
2022/11/09 03:15:26;;;;;;;14.38;3.38;;;11.40;99.90;;;;;;4882497;29;20075;-64
2022/11/09 03:17:53;;;;;;;15.20;3.55;;;11.40;99.90;;;;;;4898529;29;20096;-64
2022/11/09 03:20:20;;;;;;;11.57;3.53;;;11.40;99.90;;;;;;4881991;29;20079;-64
2022/11/09 03:22:47;;;;;;;17.17;3.95;;;11.40;99.90;;;;;;4881171;29;20048;-64
2022/11/09 03:25:14;;;;;;;9.98;3.03;;;11.50;99.90;;;;;;4898184;29;20044;-64
2022/11/09 03:27:41;;;;;;;10.63;3.30;;;11.40;99.90;;;;;;4881851;29;20060;-64
2022/11/09 03:30:08;;;;;;;20.73;4.05;;;11.50;99.90;;;;;;4881922;29;20481;-64
2022/11/09 03:32:35;;;;;;;11.57;4.05;;;11.50;99.90;;;;;;4898757;29;20048;-64
2022/11/09 03:35:02;;;;;;;17.42;3.60;;;11.50;99.90;;;;;;4898019;29;20044;-64
2022/11/09 03:37:29;;;;;;;9.02;2.30;;;11.50;99.90;;;;;;4898241;29;20617;-64
2022/11/09 03:39:57;;;;;;;13.25;2.97;;;11.40;99.90;;;;;;4898034;29;20408;-64
2022/11/09 03:42:24;;;;;;;15.73;4.00;;;11.30;99.90;;;;;;4897897;29;20525;-64
2022/11/09 03:44:51;;;;;;;14.82;2.85;;;11.30;99.90;;;;;;4865856;29;20108;-64
2022/11/09 03:47:18;;;;;;;14.45;3.58;;;11.20;99.90;;;;;;4897636;29;20154;-64
2022/11/09 03:49:45;;;;;;;11.38;2.97;;;11.20;99.90;;;;;;4898081;29;20052;-64
2022/11/09 03:52:12;;;;;;;10.45;2.63;;;11.10;99.90;;;;;;4897919;29;20486;-64
2022/11/09 03:54:38;;;;;;;7.70;2.47;;;11.10;99.90;;;;;;4898227;29;20072;-64
2022/11/09 03:57:05;;;;;;;6.72;2.28;;;11.00;99.90;;;;;;4897498;29;20056;-64
2022/11/09 03:59:32;;;;;;;13.45;4.28;;;11.00;99.90;;;;;;4897524;29;20148;-64
2022/11/09 04:01:59;;;;;;;8.15;2.90;;;11.00;99.90;;;;;;4898205;29;20521;-64
2022/11/09 04:04:26;;;;;;;9.65;3.40;;;11.00;99.90;;;;;;4881468;29;20135;-64
2022/11/09 04:06:53;;;;;;;12.05;3.50;;;11.00;99.90;;;;;;4880757;29;20080;-64
2022/11/09 04:09:19;;;;;;;8.27;2.05;;;11.00;99.90;;;;;;4865544;29;20492;-64
2022/11/09 04:11:47;;;;;;;7.28;2.20;;;10.90;99.90;;;;;;4897289;29;20045;-64
2022/11/09 04:14:13;;;;;;;7.35;2.33;;;11.00;99.90;;;;;;4897689;29;20068;-64
2022/11/09 04:16:40;;;;;;;8.45;1.98;;;11.00;99.90;;;;;;4897876;29;20498;-64
2022/11/09 04:19:07;;;;;;;9.80;2.70;;;11.00;99.90;;;;;;4898117;29;20052;-64
2022/11/09 04:21:34;;;;;;;10.82;2.25;;;11.00;99.90;;;;;;4897962;29;20049;-64
2022/11/09 04:24:01;;;;;;;11.70;2.60;;;11.00;99.90;;;;;;4897144;29;20052;-64
2022/11/09 04:26:28;;;;;;;10.75;2.13;;;11.00;99.90;;;;;;4897621;29;20053;-64
2022/11/09 04:28:55;;;;;;;5.38;1.73;;;11.10;99.90;;;;;;4899824;29;20044;-64
2022/11/09 04:31:22;;;;;;;10.70;2.03;;;11.10;99.90;;;;;;4869541;29;20051;-64
2022/11/09 04:33:54;;;;;;;10.35;2.05;;;11.10;99.90;;;;;;4901098;29;20063;-64
2022/11/09 04:36:21;;;;;;;8.90;2.28;;;11.00;99.90;;;;;;4884396;29;20469;-64
2022/11/09 04:38:48;;;;;;;19.30;3.92;;;11.00;99.90;;;;;;4884312;29;20045;-63
2022/11/09 04:41:16;;;;;;;13.25;3.33;;;11.00;99.90;;;;;;4884892;29;20044;-64
2022/11/09 04:43:42;;;;;;;11.25;2.58;;;11.00;99.90;;;;;;4884172;29;20533;-64
2022/11/09 04:46:09;;;;;;;20.25;3.58;;;11.00;99.90;;;;;;4884177;29;20052;-64
2022/11/09 04:48:36;;;;;;;14.05;2.22;;;11.00;99.90;;;;;;4900918;29;20485;-64
2022/11/09 04:51:07;;;;;;;7.93;1.98;;;11.00;99.90;;;;;;4900926;29;20112;-64
2022/11/09 04:53:34;;;;;;;7.65;2.28;;;11.00;99.90;;;;;;4884890;29;20080;-64
2022/11/09 04:56:01;;;;;;;8.15;2.72;;;11.10;99.90;;;;;;4900568;29;20052;-64
2022/11/09 04:58:28;;;;;;;12.70;2.28;;;11.10;99.90;;;;;;4884185;29;20472;-64
2022/11/09 05:01:00;;;;;;;10.90;3.13;;;11.20;99.90;;;;;;4900674;29;20059;-64
2022/11/09 05:03:26;;;;;;;9.85;2.20;;;11.20;99.90;;;;;;4869172;29;20495;-64
2022/11/09 05:05:53;;;;;;;12.00;2.92;;;11.20;99.90;;;;;;4884181;29;20123;-64
2022/11/09 05:08:20;;;;;;;10.30;2.42;;;11.20;99.90;;;;;;4884095;29;20049;-64
2022/11/09 05:10:47;;;;;;;8.85;2.38;;;11.20;99.90;;;;;;4883626;29;20045;-64
2022/11/09 05:13:14;;;;;;;34.60;3.63;;;11.20;99.90;;;;;;4901243;29;20052;-64
2022/11/09 05:15:41;;;;;;;14.43;3.17;;;11.30;99.90;;;;;;4869069;29;20056;-64
2022/11/09 05:18:09;;;;;;;12.80;4.00;;;11.30;99.90;;;;;;4883606;29;20048;-62
2022/11/09 05:20:35;;;;;;;11.48;2.90;;;11.30;99.90;;;;;;4898983;29;20473;-63
2022/11/09 05:25:48;;;;;;;9.00;2.15;;;11.10;99.90;;;;;;4900470;29;20100;-63
2022/11/09 05:28:15;;;;;;;6.00;2.03;;;11.00;99.90;;;;;;4884125;29;20048;-63
2022/11/09 05:30:42;;;;;;;9.90;2.10;;;10.90;99.90;;;;;;4883314;29;20528;-63
2022/11/09 05:33:09;;;;;;;8.35;2.45;;;10.80;99.90;;;;;;4868947;29;20048;-63
2022/11/09 05:35:36;;;;;;;11.45;2.88;;;10.80;99.90;;;;;;4884069;29;20096;-63
2022/11/09 05:38:03;;;;;;;12.55;2.25;;;10.80;99.90;;;;;;4884168;29;20127;-63
2022/11/09 05:40:31;;;;;;;13.73;3.63;;;10.80;99.90;;;;;;4899424;29;20445;-63
2022/11/09 05:42:57;;;;;;;12.75;3.38;;;10.80;99.90;;;;;;4883438;29;20044;-63
2022/11/09 05:45:24;;;;;;;14.70;3.08;;;10.80;99.90;;;;;;4899985;29;20060;-63
2022/11/09 05:48:13;;;;;;;7.53;2.40;;;10.80;99.90;;;;;;4885628;29;20244;-63
2022/11/09 05:50:40;;;;;;;8.93;2.60;;;10.70;99.90;;;;;;4883807;29;20049;-64
2022/11/09 05:53:07;;;;;;;10.45;2.10;;;10.70;99.90;;;;;;4853302;29;20403;-64
2022/11/09 05:55:34;;;;;;;7.22;1.83;;;10.70;99.90;;;;;;4900388;29;20044;-64
2022/11/09 05:58:01;;;;;;;5.82;1.48;;;10.60;99.90;;;;;;4899535;29;20052;-64
2022/11/09 06:00:28;;;;;;;4.68;2.30;;;10.60;99.90;;;;;;4898638;29;20056;-64
2022/11/09 06:03:04;;;;;;;5.30;1.52;;;10.60;99.90;;;;;;4883115;29;20048;-64
2022/11/09 06:05:33;;;;;;;6.80;1.50;;;10.50;99.90;;;;;;4882968;29;20545;-63
2022/11/09 06:08:11;;;;;;;7.13;1.67;;;10.50;99.90;;;;;;4900233;29;20104;-63
2022/11/09 06:10:39;;;;;;;2.97;1.60;;;10.50;99.90;;;;;;4853021;29;20044;-63
2022/11/09 06:13:06;;;;;;;6.85;2.00;;;10.50;99.90;;;;;;4899879;29;20053;-63
2022/11/09 06:15:32;;;;;;;7.15;2.30;;;10.50;99.90;;;;;;4882741;29;20418;-63
2022/11/09 06:17:59;;;;;;;7.13;1.55;;;10.40;99.90;;;;;;4882651;29;20571;-63
2022/11/09 06:20:27;;;;;;;5.45;1.80;;;10.40;99.90;;;;;;4883061;29;20358;-63
2022/11/09 06:22:58;;;;;;;7.85;1.40;;;10.40;99.90;;;;;;4899927;29;20443;-63
2022/11/09 06:25:30;;;;;;;4.97;1.48;;;10.40;99.90;;;;;;4899623;29;20052;-63
2022/11/09 06:27:57;;;;;;;6.60;1.80;;;10.40;99.90;;;;;;4867370;29;20079;-63
2022/11/09 06:30:24;;;;;;;8.45;2.10;;;10.40;99.90;;;;;;4867041;29;20044;-63
2022/11/09 06:32:56;;;;;;;8.10;1.20;;;10.40;99.90;;;;;;4883195;29;20377;-63
2022/11/09 06:35:23;;;;;;;4.32;1.33;;;10.40;99.90;;;;;;4899550;29;20051;-63
2022/11/09 06:37:57;;;;;;;4.25;1.45;;;10.40;99.90;;;;;;4882099;29;20052;-63
2022/11/09 06:40:24;;;;;;;6.20;1.63;;;10.40;99.90;;;;;;4882123;29;20048;-63
2022/11/09 06:42:51;;;;;;;4.38;1.30;;;10.40;99.90;;;;;;4866513;29;20045;-63
2022/11/09 06:45:18;;;;;;;5.30;1.45;;;10.30;99.90;;;;;;4880658;29;20053;-63
2022/11/09 06:47:45;;;;;;;4.10;1.40;;;10.30;99.90;;;;;;4899147;29;20048;-63
2022/11/09 06:50:12;;;;;;;5.57;1.65;;;10.30;99.90;;;;;;4882280;29;20056;-63
2022/11/09 06:52:39;;;;;;;2.92;1.45;;;10.30;99.90;;;;;;4897814;29;20612;-63
2022/11/09 06:55:07;;;;;;;4.07;1.00;;;10.30;99.90;;;;;;4899891;29;20123;-63
2022/11/09 06:57:34;;;;;;;8.10;1.40;;;10.30;99.90;;;;;;4882719;29;20047;-63
2022/11/09 07:00:01;;;;;;;3.90;1.02;;;10.30;99.90;;;;;;4898653;29;20084;-63
2022/11/09 07:02:28;;;;;;;4.43;1.50;;;10.30;99.90;;;;;;4882061;29;20048;-63
2022/11/09 07:04:55;;;;;;;5.35;2.05;;;10.20;99.90;;;;;;4866358;29;20405;-63
2022/11/09 07:07:22;;;;;;;6.57;2.08;;;10.20;99.90;;;;;;4881791;29;20480;-63
2022/11/09 07:09:54;;;;;;;6.93;2.00;;;10.20;99.90;;;;;;4897192;29;20077;-63
2022/11/09 07:12:21;;;;;;;5.30;1.52;;;10.30;99.90;;;;;;4881695;29;20048;-63
2022/11/09 07:14:48;;;;;;;6.70;2.20;;;10.30;99.90;;;;;;4866555;29;20056;-63
2022/11/09 07:17:15;;;;;;;5.32;1.40;;;10.30;99.90;;;;;;4898823;29;20085;-63
2022/11/09 07:19:42;;;;;;;31.42;24.48;;;10.30;99.90;;;;;;4898168;29;20437;-62
2022/11/09 07:22:09;;;;;;;22.58;11.63;;;10.30;99.90;;;;;;4881632;29;20100;-63
2022/11/09 07:24:36;;;;;;;9.13;2.38;;;10.40;99.90;;;;;;4882384;29;20067;-61
2022/11/09 07:27:03;;;;;;;8.13;2.22;;;10.40;99.90;;;;;;4898109;29;20405;-63
2022/11/09 07:29:30;;;;;;;5.28;1.45;;;10.40;99.90;;;;;;4898741;29;20053;-63
2022/11/09 07:31:56;;;;;;;65.97;45.72;;;10.40;99.90;;;;;;4898338;29;20044;-61
2022/11/09 07:34:23;;;;;;;72.05;51.22;;;10.40;99.90;;;;;;4898083;29;20045;-61
2022/11/09 07:36:53;;;;;;;30.35;22.23;;;10.40;99.90;;;;;;4881900;29;20060;-61
2022/11/09 07:39:20;;;;;;;10.02;4.80;;;10.40;99.90;;;;;;4881675;29;20107;-60
2022/11/09 07:41:47;;;;;;;3.67;1.90;;;10.50;99.90;;;;;;4897799;29;20052;-60
2022/11/09 07:44:17;;;;;;;5.25;1.70;;;10.40;99.90;;;;;;4881139;29;20093;-60
2022/11/09 07:46:46;;;;;;;4.47;1.55;;;10.40;99.90;;;;;;4897706;29;20119;-60
2022/11/09 07:49:14;;;;;;;6.03;1.65;;;10.40;99.90;;;;;;4881745;29;20100;-60
2022/11/09 07:51:41;;;;;;;10.82;1.95;;;10.40;99.90;;;;;;4897696;29;20544;-59
2022/11/09 07:54:08;;;;;;;3.88;1.40;;;10.40;99.90;;;;;;4897687;29;20558;-62
2022/11/09 07:56:35;;;;;;;5.15;1.25;;;10.40;99.90;;;;;;4881841;29;20048;-63
2022/11/09 07:59:02;;;;;;;12.95;2.28;;;10.40;99.90;;;;;;4866643;29;20402;-65
2022/11/09 08:01:30;;;;;;;15.55;9.80;;;10.30;99.90;;;;;;4897913;29;20044;-65
2022/11/09 08:03:56;;;;;;;39.33;25.20;;;10.30;99.90;;;;;;4886745;29;20059;-67
2022/11/09 08:06:26;;;;;;;17.35;10.40;;;10.30;99.90;;;;;;4904402;29;20365;-65
2022/11/09 08:08:54;;;;;;;18.45;11.18;;;10.30;99.90;;;;;;4888389;29;20052;-64
2022/11/09 08:11:21;;;;;;;9.60;2.25;;;10.30;99.90;;;;;;4903800;29;20473;-65
2022/11/09 08:13:48;;;;;;;4.10;1.83;;;10.30;99.90;;;;;;4904897;29;20089;-64
2022/11/09 08:16:15;;;;;;;4.45;1.60;;;10.30;99.90;;;;;;4887071;29;20142;-61
2022/11/09 08:18:41;;;;;;;4.85;1.35;;;10.40;99.90;;;;;;4903665;29;20045;-61
2022/11/09 08:21:08;;;;;;;8.90;2.13;;;10.40;99.90;;;;;;4887249;29;20100;-60
2022/11/09 08:23:35;;;;;;;6.43;1.95;;;10.40;99.90;;;;;;4872212;29;20049;-60
2022/11/09 08:26:03;;;;;;;9.13;2.33;;;10.40;99.90;;;;;;4887461;29;20051;-60
2022/11/09 08:28:31;;;;;;;8.10;1.50;;;10.40;99.90;;;;;;4887594;29;20425;-61
2022/11/09 08:30:59;;;;;;;4.70;1.85;;;10.50;99.90;;;;;;4886878;29;20468;-61
2022/11/09 08:33:27;;;;;;;5.15;1.40;;;10.60;99.90;;;;;;4887584;29;20076;-69
2022/11/09 08:35:54;;;;;;;5.88;1.70;;;10.70;99.90;;;;;;4871898;29;20057;-68
2022/11/09 08:38:21;;;;;;;9.73;1.98;;;10.70;99.90;;;;;;4871444;29;20051;-65
2022/11/09 08:40:49;;;;;;;8.55;2.25;;;10.80;99.90;;;;;;4871553;29;20048;-65
2022/11/09 08:43:15;;;;;;;29.77;18.10;;;10.80;99.90;;;;;;4903498;29;20045;-66
2022/11/09 08:45:42;;;;;;;31.58;21.77;;;10.90;99.90;;;;;;4903532;29;20044;-67
2022/11/09 08:48:09;;;;;;;7.70;2.47;;;10.90;99.90;;;;;;4872044;29;20100;-64
2022/11/09 08:50:36;;;;;;;89.28;79.63;;;10.90;99.90;;;;;;4887542;29;20048;-63
2022/11/09 08:53:04;;;;;;;8.25;5.10;;;10.90;99.90;;;;;;4887305;29;20534;-69
2022/11/09 08:55:31;;;;;;;5.05;2.47;;;10.90;99.90;;;;;;4903670;29;20049;-65
2022/11/09 08:57:59;;;;;;;5.32;1.70;;;10.90;99.90;;;;;;4903536;29;20055;-64
2022/11/09 09:00:25;;;;;;;7.68;2.28;;;10.90;99.90;;;;;;4886791;29;20179;-61
2022/11/09 09:02:52;;;;;;;7.50;2.03;;;10.90;99.90;;;;;;4903360;29;20403;-60
2022/11/09 09:05:19;;;;;;;6.47;1.60;;;10.90;99.90;;;;;;4871676;29;20083;-60
2022/11/09 09:07:46;;;;;;;7.30;1.98;;;11.00;99.90;;;;;;4886390;29;20131;-60
2022/11/09 09:10:13;;;;;;;7.25;1.92;;;11.00;99.90;;;;;;4903299;29;20048;-62
2022/11/09 09:12:40;;;;;;;79.15;64.45;;;11.10;99.90;;;;;;4886491;29;20052;-61
2022/11/09 09:15:08;;;;;;;28.92;20.10;;;11.10;99.90;;;;;;4900161;29;20095;-63
2022/11/09 09:17:34;;;;;;;6.85;3.13;;;11.20;99.90;;;;;;4868291;29;20075;-61
2022/11/09 09:20:02;;;;;;;7.45;2.78;;;11.30;99.90;;;;;;4900644;29;20400;-61
2022/11/09 09:22:31;;;;;;;5.05;1.50;;;11.30;99.90;;;;;;4900062;29;20147;-64
2022/11/09 09:24:58;;;;;;;3.08;1.27;;;11.40;99.90;;;;;;4883672;29;20049;-65
2022/11/09 09:27:25;;;;;;;8.20;2.05;;;11.40;99.90;;;;;;4883521;29;20061;-64
2022/11/09 09:29:51;;;;;;;4.43;1.20;;;11.40;99.90;;;;;;4899737;29;20488;-64
2022/11/09 09:32:18;;;;;;;4.72;1.58;;;11.40;99.90;;;;;;4867977;29;20052;-64
2022/11/09 09:34:45;;;;;;;3.10;1.10;;;11.40;99.90;;;;;;4899966;29;20477;-64
2022/11/09 09:37:12;;;;;;;3.42;1.00;;;11.40;99.90;;;;;;4883510;29;20132;-64
2022/11/09 09:39:39;;;;;;;5.40;1.80;;;11.40;99.90;;;;;;4883477;29;20071;-64
2022/11/09 09:42:07;;;;;;;5.85;1.40;;;11.40;99.90;;;;;;4884036;29;20044;-65
2022/11/09 09:45:03;;;;;;;7.15;1.73;;;11.40;99.90;;;;;;4882929;29;20093;-64
2022/11/09 09:47:58;;;;;;;4.70;1.40;;;11.40;99.90;;;;;;4881009;29;20421;-65
2022/11/09 09:50:39;;;;;;;2.80;1.60;;;11.40;99.90;;;;;;4866237;29;20060;-64
2022/11/09 09:53:17;;;;;;;3.65;1.02;;;11.40;99.90;;;;;;4899593;29;20111;-64
2022/11/09 09:55:54;;;;;;;5.50;1.25;;;11.40;99.90;;;;;;4856422;29;20104;-65
2022/11/09 09:58:25;;;;;;;5.35;1.35;;;11.40;99.90;;;;;;4884034;29;20044;-64
2022/11/09 10:00:55;;;;;;;8.25;1.77;;;11.40;99.90;;;;;;4883705;29;20068;-64
2022/11/09 10:03:22;;;;;;;28.67;3.38;;;11.50;99.90;;;;;;4883304;29;20485;-64
2022/11/09 10:05:49;;;;;;;9.30;1.90;;;11.50;99.90;;;;;;4899350;29;20048;-64
2022/11/09 10:08:31;;;;;;;3.00;1.02;;;11.60;99.90;;;;;;4899825;29;20048;-65
2022/11/09 10:11:10;;;;;;;9.02;1.45;;;11.60;99.90;;;;;;4900186;29;20048;-64
2022/11/09 10:14:20;;;;;;;9.77;1.65;;;11.60;99.90;;;;;;4899165;29;20100;-64
2022/11/09 10:17:00;;;;;;;4.72;1.50;;;11.70;99.90;;;;;;4874739;29;20060;-64
2022/11/09 10:19:58;;;;;;;6.38;1.55;;;11.80;99.90;;;;;;4868471;29;20057;-64
2022/11/09 10:22:34;;;;;;;2.90;1.13;;;11.80;99.90;;;;;;4884163;29;20048;-64
2022/11/09 10:25:08;;;;;;;3.40;1.40;;;11.80;99.90;;;;;;4868388;29;20052;-64
2022/11/09 10:27:56;;;;;;;4.65;1.40;;;11.80;99.90;;;;;;4898657;29;20079;-64
2022/11/09 10:30:25;;;;;;;8.80;1.80;;;11.80;99.90;;;;;;4851404;29;20499;-64
2022/11/09 10:33:09;;;;;;;5.20;1.17;;;11.80;99.90;;;;;;4851706;29;20112;-65
2022/11/09 10:36:01;;;;;;;3.45;1.20;;;11.80;99.90;;;;;;4883908;29;20384;-64
2022/11/09 10:38:41;;;;;;;9.80;1.85;;;11.80;99.90;;;;;;4898367;29;20480;-64
2022/11/09 10:41:17;;;;;;;4.45;1.70;;;11.80;99.90;;;;;;4851654;29;20090;-64
2022/11/09 10:43:44;;;;;;;5.13;1.10;;;11.80;99.90;;;;;;4881736;29;20059;-64
2022/11/09 10:46:11;;;;;;;7.90;1.67;;;11.80;99.90;;;;;;4866197;29;20460;-65
2022/11/09 10:48:38;;;;;;;7.22;1.42;;;11.80;99.90;;;;;;4898984;29;20116;-65
2022/11/09 10:51:25;;;;;;;5.45;1.67;;;11.90;99.90;;;;;;4866499;29;20120;-64
2022/11/09 10:54:18;;;;;;;5.85;2.58;;;11.90;99.90;;;;;;4884544;29;20049;-65
2022/11/09 10:56:51;;;;;;;6.85;2.58;;;12.00;99.90;;;;;;4881340;29;20075;-65
2022/11/09 10:59:39;;;;;;;5.35;1.98;;;12.00;99.90;;;;;;4884120;29;20140;-65
2022/11/09 11:02:25;;;;;;;4.53;1.55;;;12.10;99.90;;;;;;4881616;29;20089;-64
2022/11/09 11:05:18;;;;;;;8.88;1.98;;;12.10;99.90;;;;;;4881013;29;20489;-64
2022/11/09 11:07:45;;;;;;;8.32;2.00;;;12.20;99.90;;;;;;4897733;29;20048;-64
2022/11/09 11:10:15;;;;;;;4.00;1.80;;;12.20;99.90;;;;;;4865982;29;20500;-65
2022/11/09 11:12:43;;;;;;;7.85;2.47;;;12.20;99.90;;;;;;4881603;29;20076;-64
2022/11/09 11:15:34;;;;;;;8.88;2.17;;;12.20;99.90;;;;;;4866033;29;20055;-64
2022/11/09 11:18:03;;;;;;;4.40;1.80;;;12.20;99.90;;;;;;4897964;29;20052;-65
2022/11/09 11:20:34;;;;;;;6.85;2.30;;;12.20;99.90;;;;;;4866391;29;20497;-64
2022/11/09 11:23:11;;;;;;;11.23;3.03;;;12.20;99.90;;;;;;4881632;29;20396;-64
2022/11/09 11:25:59;;;;;;;7.25;2.25;;;12.30;99.90;;;;;;4897423;29;20048;-64
2022/11/09 11:28:33;;;;;;;16.70;2.58;;;12.40;99.90;;;;;;4866684;29;20052;-64
2022/11/09 11:31:00;;;;;;;11.48;2.70;;;12.40;99.90;;;;;;4881350;29;20136;-64
2022/11/09 11:33:28;;;;;;;8.68;2.33;;;12.50;99.90;;;;;;4881517;29;20048;-64
2022/11/09 11:35:59;;;;;;;6.35;1.60;;;12.50;99.90;;;;;;4850466;29;20096;-64
2022/11/09 11:38:31;;;;;;;3.55;1.40;;;12.60;99.90;;;;;;4897246;29;20388;-65
2022/11/09 11:41:10;;;;;;;7.65;2.03;;;12.60;99.90;;;;;;4880684;29;20119;-64
2022/11/09 11:43:47;;;;;;;12.95;2.08;;;12.60;99.90;;;;;;4896458;29;20052;-64
2022/11/09 11:46:47;;;;;;;5.75;2.58;;;12.60;99.90;;;;;;4880388;29;20041;-64
2022/11/09 11:49:55;;;;;;;4.28;1.30;;;12.60;99.90;;;;;;4893298;29;20493;-65
2022/11/09 11:52:36;;;;;;;6.22;3.00;;;12.60;99.90;;;;;;4881012;29;20060;-66
2022/11/09 11:55:39;;;;;;;514.65;381.83;;;12.60;99.90;;;;;;4897162;29;20101;-64
2022/11/09 11:58:30;;;;;;;66.13;57.75;;;12.70;99.90;;;;;;4896811;29;20080;-63
2022/11/09 12:01:13;;;;;;;19.35;14.45;;;12.70;99.90;;;;;;4883814;29;20048;-62
2022/11/09 12:04:05;;;;;;;12.45;6.57;;;12.70;99.90;;;;;;4880447;29;20045;-63
2022/11/09 12:06:34;;;;;;;6.88;3.42;;;12.70;99.90;;;;;;4897850;29;20041;-64
2022/11/09 12:09:32;;;;;;;7.13;2.33;;;12.70;99.90;;;;;;4865576;29;20044;-64
2022/11/09 12:12:26;;;;;;;10.20;3.00;;;12.70;99.90;;;;;;4857353;29;20127;-65
2022/11/09 12:15:10;;;;;;;10.90;3.90;;;12.80;99.90;;;;;;4897638;29;20385;-64
2022/11/09 12:17:42;;;;;;;5.45;2.67;;;12.80;99.90;;;;;;4880560;29;20059;-68
2022/11/09 12:20:44;;;;;;;7.05;2.33;;;12.90;99.90;;;;;;4880836;29;20111;-66
2022/11/09 12:23:24;;;;;;;5.45;2.08;;;13.00;99.90;;;;;;4883733;29;20064;-65
2022/11/09 12:26:01;;;;;;;;;;;13.10;99.90;;;;;;4897751;29;20133;-62
2022/11/09 12:28:28;;;;;;;6.63;2.03;;;13.20;99.90;;;;;;4880294;29;19977;-62
2022/11/09 12:31:03;;;;;;;8.85;1.83;;;13.10;99.90;;;;;;4897509;29;20072;-62
2022/11/09 12:33:40;;;;;;;6.70;1.75;;;13.20;99.90;;;;;;4865724;29;20435;-62
2022/11/09 12:36:23;;;;;;;3.83;2.03;;;13.20;99.90;;;;;;4851710;29;20052;-62
2022/11/09 12:38:56;;;;;;;6.00;2.03;;;13.20;99.90;;;;;;4866355;29;20064;-63
2022/11/09 12:41:26;;;;;;;8.05;2.13;;;13.20;99.90;;;;;;4881227;29;20048;-63
2022/11/09 12:43:59;;;;;;;;;;;13.30;99.90;;;;;;4898053;29;20453;-61
2022/11/09 12:46:29;;;;;;;15.25;9.70;;;13.30;99.90;;;;;;4897836;29;19998;-61
2022/11/09 12:48:58;;;;;;;531.42;433.73;;;13.30;99.90;;;;;;4880913;29;20044;-62
2022/11/09 12:51:25;;;;;;;104.53;89.22;;;13.30;99.90;;;;;;4900433;29;20066;-61
2022/11/09 12:53:51;;;;;;;26.67;18.63;;;13.40;99.90;;;;;;4883769;29;20166;-61
2022/11/09 12:56:18;;;;;;;10.73;7.13;;;13.50;99.90;;;;;;4868209;29;20047;-62
2022/11/09 12:58:45;;;;;;;8.98;4.25;;;13.50;99.90;;;;;;4900950;29;20044;-62
2022/11/09 13:01:33;;;;;;;7.85;2.42;;;13.50;99.90;;;;;;4884417;29;20053;-61